Time;durP1;ratioP1;P1;durP2;ratioP2;P2;SDS_P1;SDS_P2;PMS_P1;PMS_P2;Temp;Humidity;BMP_temperature;BMP_pressure;BME280_temperature;BME280_humidity;BME280_pressure;Samples;Min_cycle;Max_cycle;Signal;HPM_P1;HPM_P2
2024/01/23 00:01:43;;;;;;;13.50;3.80;;;6.90;85.60;;;;;;5134613;27;20108;-84
2024/01/23 00:04:08;;;;;;;15.70;2.95;;;7.00;85.40;;;;;;5131636;27;20059;-84
2024/01/23 00:06:34;;;;;;;17.25;3.90;;;7.00;85.20;;;;;;5128044;27;20046;-84
2024/01/23 00:09:00;;;;;;;17.75;4.30;;;7.00;85.00;;;;;;5110829;27;20043;-84
2024/01/23 00:11:25;;;;;;;13.00;3.15;;;7.00;84.90;;;;;;5126577;27;20080;-84
2024/01/23 00:13:51;;;;;;;16.38;3.70;;;6.90;84.70;;;;;;5133219;27;20074;-84
2024/01/23 00:16:17;;;;;;;18.25;3.97;;;7.00;84.70;;;;;;5106594;27;20027;-85
2024/01/23 00:18:42;;;;;;;16.92;3.08;;;7.00;84.60;;;;;;5134114;27;20035;-85
2024/01/23 00:21:08;;;;;;;18.55;2.85;;;6.90;84.40;;;;;;5136432;27;20042;-85
2024/01/23 00:23:33;;;;;;;10.98;2.50;;;6.90;84.30;;;;;;5106617;28;20023;-85
2024/01/23 00:25:59;;;;;;;17.00;2.85;;;6.90;84.20;;;;;;5122974;27;20126;-85
2024/01/23 00:28:25;;;;;;;17.88;3.30;;;6.90;84.00;;;;;;5113987;27;20078;-85
2024/01/23 00:30:50;;;;;;;16.65;2.83;;;6.90;84.10;;;;;;5132765;27;20058;-85
2024/01/23 00:33:16;;;;;;;10.52;2.47;;;6.90;83.90;;;;;;5129012;27;20035;-85
2024/01/23 00:35:42;;;;;;;18.20;3.25;;;6.90;83.90;;;;;;5122184;27;20107;-85
2024/01/23 00:38:07;;;;;;;12.90;3.00;;;6.90;84.00;;;;;;5129460;27;20039;-85
2024/01/23 00:40:33;;;;;;;17.80;4.22;;;6.90;84.00;;;;;;5113258;27;20095;-85
2024/01/23 00:42:59;;;;;;;19.73;4.03;;;6.90;84.00;;;;;;5128710;27;20061;-84
2024/01/23 00:45:25;;;;;;;15.05;2.70;;;6.90;83.90;;;;;;5119203;27;20039;-84
2024/01/23 00:47:50;;;;;;;18.17;2.92;;;6.90;83.90;;;;;;5129545;27;20050;-85
2024/01/23 00:50:17;;;;;;;16.05;3.88;;;6.90;83.80;;;;;;5129132;27;20035;-85
2024/01/23 00:52:43;;;;;;;14.63;2.97;;;6.90;83.80;;;;;;5116136;27;20035;-85
2024/01/23 00:55:09;;;;;;;16.92;3.63;;;6.80;83.70;;;;;;5129018;27;20031;-84
2024/01/23 00:57:34;;;;;;;20.92;3.60;;;6.80;83.70;;;;;;5109443;27;20043;-84
2024/01/23 01:00:04;;;;;;;17.40;2.78;;;6.80;83.70;;;;;;5122721;27;20055;-85
2024/01/23 01:02:30;;;;;;;18.95;4.15;;;6.80;83.60;;;;;;5136061;27;20059;-85
2024/01/23 01:04:55;;;;;;;13.23;3.40;;;6.80;83.80;;;;;;5113266;27;20034;-81
2024/01/23 01:07:21;;;;;;;18.83;3.13;;;6.80;83.80;;;;;;5122610;27;20036;-81
2024/01/23 01:09:47;;;;;;;15.40;3.13;;;7.10;84.00;;;;;;5126705;27;20039;-81
2024/01/23 01:12:15;;;;;;;15.70;3.38;;;6.80;83.90;;;;;;5126838;27;20136;-81
2024/01/23 01:14:41;;;;;;;17.70;4.07;;;6.80;84.00;;;;;;5141269;27;20047;-81
2024/01/23 01:17:07;;;;;;;15.25;3.38;;;6.70;84.00;;;;;;5140554;27;20035;-81
2024/01/23 01:19:32;;;;;;;15.20;3.17;;;6.70;84.20;;;;;;5114412;28;20042;-81
2024/01/23 01:22:01;;;;;;;18.80;4.13;;;6.70;84.30;;;;;;5135782;27;20039;-81
2024/01/23 01:24:27;;;;;;;16.52;3.90;;;6.70;84.30;;;;;;5112751;28;20035;-81
2024/01/23 01:26:52;;;;;;;17.10;3.67;;;6.70;84.40;;;;;;5134903;28;20035;-81
2024/01/23 01:29:18;;;;;;;17.58;3.22;;;6.70;84.40;;;;;;5139244;27;20039;-81
2024/01/23 01:31:43;;;;;;;16.90;2.90;;;6.70;84.30;;;;;;5131013;27;20094;-81
2024/01/23 01:34:09;;;;;;;21.33;3.08;;;6.70;84.30;;;;;;5106616;27;20050;-81
2024/01/23 01:36:35;;;;;;;14.90;3.00;;;6.70;84.30;;;;;;5130190;27;20039;-81
2024/01/23 01:39:02;;;;;;;15.32;3.47;;;6.70;84.20;;;;;;5129809;27;20454;-81
2024/01/23 01:41:27;;;;;;;13.10;3.10;;;6.70;84.10;;;;;;5129473;27;20379;-82
2024/01/23 01:43:53;;;;;;;17.02;2.80;;;6.70;84.00;;;;;;5131620;27;20043;-81
2024/01/23 01:46:23;;;;;;;11.32;3.35;;;6.80;84.00;;;;;;5130958;27;20040;-81
2024/01/23 01:48:49;;;;;;;20.92;4.15;;;6.70;83.80;;;;;;5126577;27;20031;-81
2024/01/23 01:51:17;;;;;;;15.90;3.35;;;6.70;83.60;;;;;;5133817;27;20019;-81
2024/01/23 01:53:44;;;;;;;22.05;4.93;;;6.70;83.60;;;;;;5127268;27;20039;-81
2024/01/23 01:56:11;;;;;;;18.55;3.45;;;6.70;83.50;;;;;;5141126;27;20066;-81
2024/01/23 01:58:39;;;;;;;16.58;3.25;;;7.20;83.70;;;;;;5133789;27;20039;-81
2024/01/23 02:01:05;;;;;;;19.45;3.63;;;6.70;83.30;;;;;;5151008;27;20035;-81
2024/01/23 02:03:34;;;;;;;17.75;3.72;;;6.70;83.20;;;;;;5134499;27;20401;-81
2024/01/23 02:06:05;;;;;;;17.48;3.38;;;6.70;83.20;;;;;;5128264;28;20035;-81
2024/01/23 02:08:37;;;;;;;15.68;2.85;;;6.70;83.10;;;;;;5124597;27;20106;-81
2024/01/23 02:11:03;;;;;;;19.05;4.03;;;6.70;83.00;;;;;;5122933;27;20087;-85
2024/01/23 02:13:29;;;;;;;16.73;3.60;;;6.70;82.90;;;;;;5123047;27;20430;-85
2024/01/23 02:15:55;;;;;;;16.42;3.35;;;6.70;82.70;;;;;;5114347;27;20169;-85
2024/01/23 02:18:22;;;;;;;21.92;3.42;;;6.60;82.60;;;;;;5117643;27;20371;-85
2024/01/23 02:20:47;;;;;;;21.98;3.85;;;6.60;83.10;;;;;;5103857;28;20040;-84
2024/01/23 02:23:14;;;;;;;16.40;3.22;;;6.60;82.60;;;;;;5136100;27;20032;-85
2024/01/23 02:25:41;;;;;;;16.50;3.45;;;6.60;83.00;;;;;;5124875;27;20478;-84
2024/01/23 02:28:07;;;;;;;21.98;3.92;;;6.60;82.60;;;;;;5117653;27;20452;-84
2024/01/23 02:30:34;;;;;;;17.30;3.13;;;6.60;82.60;;;;;;5120324;27;20079;-84
2024/01/23 02:33:03;;;;;;;14.48;3.45;;;6.50;82.40;;;;;;5122947;27;20096;-85
2024/01/23 02:35:29;;;;;;;15.98;3.92;;;6.50;82.50;;;;;;5118243;27;20062;-85
2024/01/23 02:37:55;;;;;;;15.80;2.92;;;6.50;82.50;;;;;;5114637;28;20547;-85
2024/01/23 02:40:20;;;;;;;14.93;3.53;;;6.50;82.40;;;;;;5123162;27;20079;-85
2024/01/23 02:42:46;;;;;;;18.27;3.25;;;7.10;82.70;;;;;;5120499;27;20027;-85
2024/01/23 02:45:11;;;;;;;19.67;3.38;;;6.50;82.30;;;;;;5127258;27;20039;-85
2024/01/23 02:47:37;;;;;;;19.83;3.95;;;6.50;82.40;;;;;;5133465;28;20092;-85
2024/01/23 02:50:03;;;;;;;22.75;4.50;;;6.50;82.40;;;;;;5122367;27;20069;-85
2024/01/23 02:52:31;;;;;;;15.10;3.20;;;6.50;82.40;;;;;;5098520;28;20138;-85
2024/01/23 02:54:58;;;;;;;17.95;3.25;;;6.40;82.30;;;;;;5124069;27;20458;-85
2024/01/23 02:57:24;;;;;;;16.83;3.65;;;6.40;82.40;;;;;;5112402;28;20104;-85
2024/01/23 02:59:50;;;;;;;16.35;3.40;;;6.40;82.50;;;;;;5124089;28;20032;-85
2024/01/23 03:02:15;;;;;;;16.77;3.78;;;6.40;82.60;;;;;;5115123;28;20593;-85
2024/01/23 03:04:41;;;;;;;18.67;4.20;;;7.30;83.20;;;;;;5122597;27;20035;-85
2024/01/23 03:07:07;;;;;;;15.60;3.13;;;6.40;82.70;;;;;;5114081;28;20120;-85
2024/01/23 03:09:33;;;;;;;17.75;5.10;;;6.40;82.90;;;;;;5123138;28;20516;-85
2024/01/23 03:11:58;;;;;;;21.80;4.60;;;6.40;83.00;;;;;;5118267;28;20057;-85
2024/01/23 03:14:24;;;;;;;24.48;4.82;;;6.40;83.10;;;;;;5115959;28;20032;-85
2024/01/23 03:16:49;;;;;;;20.15;3.80;;;6.50;83.10;;;;;;5105286;28;20138;-85
2024/01/23 03:19:15;;;;;;;17.33;3.28;;;6.40;83.10;;;;;;5123989;28;20038;-86
2024/01/23 03:21:41;;;;;;;21.50;4.25;;;6.50;83.20;;;;;;5119424;28;20032;-84
2024/01/23 03:24:06;;;;;;;19.13;4.45;;;6.50;83.20;;;;;;5124513;28;20035;-85
2024/01/23 03:26:32;;;;;;;19.17;4.30;;;6.50;83.20;;;;;;5120818;28;20035;-85
2024/01/23 03:28:58;;;;;;;18.98;3.92;;;7.30;83.70;;;;;;5117064;27;20059;-85
2024/01/23 03:31:23;;;;;;;31.70;5.43;;;6.60;83.30;;;;;;5113436;28;20055;-80
2024/01/23 03:33:49;;;;;;;18.70;3.92;;;6.60;83.20;;;;;;5140993;28;20131;-81
2024/01/23 03:36:16;;;;;;;22.35;4.45;;;6.60;83.20;;;;;;5129176;28;20048;-81
2024/01/23 03:38:42;;;;;;;22.77;5.07;;;7.20;83.60;;;;;;5121080;28;20039;-81
2024/01/23 03:41:07;;;;;;;20.13;4.72;;;6.60;83.20;;;;;;5124940;28;20172;-81
2024/01/23 03:43:33;;;;;;;21.83;4.47;;;6.60;83.10;;;;;;5123600;27;20035;-81
2024/01/23 03:45:58;;;;;;;22.08;3.78;;;6.70;83.20;;;;;;5126677;28;20101;-80
2024/01/23 03:48:24;;;;;;;23.65;4.43;;;6.70;83.20;;;;;;5109010;28;20043;-81
2024/01/23 03:50:50;;;;;;;22.90;5.68;;;6.70;83.20;;;;;;5120138;28;20036;-81
2024/01/23 03:53:15;;;;;;;25.45;4.43;;;6.70;83.20;;;;;;5126447;28;20088;-81
2024/01/23 03:55:41;;;;;;;18.77;4.32;;;6.70;83.30;;;;;;5128138;28;20046;-81
2024/01/23 03:58:07;;;;;;;19.27;5.38;;;6.70;83.30;;;;;;5125782;28;20066;-81
2024/01/23 04:00:32;;;;;;;25.75;4.20;;;6.80;83.40;;;;;;5102055;27;20039;-81
2024/01/23 04:02:59;;;;;;;18.75;3.80;;;6.80;83.40;;;;;;5127036;27;20027;-81
2024/01/23 04:05:25;;;;;;;22.13;4.72;;;6.80;83.30;;;;;;5115940;27;20032;-81
2024/01/23 04:07:50;;;;;;;15.57;3.65;;;6.80;83.30;;;;;;5116088;27;20035;-81
2024/01/23 04:10:16;;;;;;;22.30;4.38;;;6.80;83.20;;;;;;5127723;27;20039;-81
2024/01/23 04:12:42;;;;;;;24.02;4.10;;;6.80;83.30;;;;;;5131945;27;20046;-81
2024/01/23 04:15:11;;;;;;;21.90;4.93;;;6.80;83.30;;;;;;5125122;27;20390;-81
2024/01/23 04:17:40;;;;;;;22.17;4.88;;;6.80;83.20;;;;;;5112647;27;20047;-81
2024/01/23 04:20:06;;;;;;;21.50;5.07;;;6.90;83.30;;;;;;5127986;27;20027;-81
2024/01/23 04:22:33;;;;;;;23.92;4.60;;;6.90;83.20;;;;;;5131108;27;20035;-81
2024/01/23 04:24:59;;;;;;;22.08;3.67;;;6.90;83.20;;;;;;5110603;27;20437;-81
2024/01/23 04:27:25;;;;;;;26.63;5.13;;;6.90;83.20;;;;;;5127221;27;20036;-81
2024/01/23 04:29:50;;;;;;;22.50;4.63;;;6.90;83.00;;;;;;5108993;27;20042;-81
2024/01/23 04:32:18;;;;;;;22.88;4.82;;;6.90;83.00;;;;;;5128944;27;20448;-84
2024/01/23 04:34:44;;;;;;;17.52;4.47;;;7.00;83.00;;;;;;5121393;27;20043;-85
2024/01/23 04:37:09;;;;;;;26.67;5.50;;;7.00;83.00;;;;;;5117151;27;20131;-85
2024/01/23 04:39:35;;;;;;;22.92;4.90;;;7.00;83.00;;;;;;5126593;27;20031;-85
2024/01/23 04:42:01;;;;;;;21.02;4.18;;;7.20;83.20;;;;;;5126887;27;20027;-85
2024/01/23 04:44:26;;;;;;;18.75;4.28;;;7.00;83.10;;;;;;5122194;27;20031;-85
2024/01/23 04:46:52;;;;;;;24.17;4.38;;;7.00;83.10;;;;;;5102503;28;20165;-85
2024/01/23 04:49:17;;;;;;;30.10;5.15;;;7.00;83.10;;;;;;5128425;27;20039;-85
2024/01/23 04:51:43;;;;;;;21.35;4.45;;;7.00;83.10;;;;;;5107750;27;20123;-85
2024/01/23 04:54:08;;;;;;;19.73;4.28;;;7.00;83.10;;;;;;5118418;27;20035;-85
2024/01/23 04:56:34;;;;;;;19.83;4.45;;;7.10;83.10;;;;;;5118053;27;20070;-86
2024/01/23 04:58:59;;;;;;;24.88;4.78;;;7.10;83.00;;;;;;5116559;27;20134;-85
2024/01/23 05:01:25;;;;;;;26.23;5.30;;;7.10;83.00;;;;;;5113239;28;20042;-85
2024/01/23 05:03:51;;;;;;;29.30;6.20;;;7.20;83.10;;;;;;5110711;27;20035;-85
2024/01/23 05:06:16;;;;;;;24.08;6.18;;;7.10;83.10;;;;;;5095946;27;20059;-85
2024/01/23 05:08:42;;;;;;;19.55;4.28;;;7.10;83.20;;;;;;5119968;27;20080;-85
2024/01/23 05:11:08;;;;;;;33.45;5.05;;;7.20;83.20;;;;;;5126262;27;20401;-85
2024/01/23 05:13:34;;;;;;;23.20;4.97;;;7.10;83.20;;;;;;5105581;28;20031;-85
2024/01/23 05:15:59;;;;;;;25.33;5.80;;;7.10;83.20;;;;;;5106137;27;20037;-86
2024/01/23 05:18:25;;;;;;;27.67;5.65;;;7.10;83.30;;;;;;5122323;27;20035;-85
2024/01/23 05:20:50;;;;;;;22.02;4.78;;;7.20;83.40;;;;;;5105203;27;20080;-85
2024/01/23 05:23:16;;;;;;;23.30;4.68;;;7.10;83.40;;;;;;5101023;27;20039;-84
2024/01/23 05:25:43;;;;;;;21.65;4.40;;;7.10;83.50;;;;;;5122085;27;20046;-85
2024/01/23 05:28:09;;;;;;;27.48;5.82;;;7.10;83.40;;;;;;5118310;27;20443;-85
2024/01/23 05:30:34;;;;;;;28.05;4.78;;;7.20;83.50;;;;;;5122423;27;20122;-85
2024/01/23 05:33:00;;;;;;;27.55;5.40;;;7.20;83.50;;;;;;5134639;27;20455;-86
2024/01/23 05:35:26;;;;;;;26.48;5.80;;;7.20;83.50;;;;;;5104671;27;20059;-85
2024/01/23 05:37:51;;;;;;;27.83;5.97;;;7.20;83.60;;;;;;5120738;27;20028;-85
2024/01/23 05:40:17;;;;;;;21.42;4.07;;;7.20;83.60;;;;;;5105118;28;20032;-85
2024/01/23 05:42:42;;;;;;;25.10;4.97;;;7.20;83.60;;;;;;5101234;27;20455;-85
2024/01/23 05:45:09;;;;;;;25.67;6.80;;;7.20;83.60;;;;;;5117373;27;20027;-85
2024/01/23 05:47:35;;;;;;;25.80;5.65;;;7.20;83.70;;;;;;5121935;27;20084;-85
2024/01/23 05:50:01;;;;;;;23.50;4.78;;;7.20;83.60;;;;;;5121560;27;20486;-85
2024/01/23 05:52:27;;;;;;;26.63;5.22;;;7.20;83.60;;;;;;5116930;27;20390;-85
2024/01/23 05:54:52;;;;;;;22.10;5.93;;;7.20;83.60;;;;;;5109871;28;20061;-85
2024/01/23 05:57:18;;;;;;;24.50;5.25;;;7.20;83.60;;;;;;5103265;27;20047;-84
2024/01/23 05:59:43;;;;;;;26.08;6.30;;;7.20;83.50;;;;;;5106745;28;20421;-86
2024/01/23 06:02:10;;;;;;;32.47;6.03;;;7.20;83.50;;;;;;5117159;27;20397;-85
2024/01/23 06:04:36;;;;;;;24.58;6.60;;;7.20;83.50;;;;;;5118728;27;20032;-85
2024/01/23 06:07:02;;;;;;;30.73;6.00;;;7.30;83.60;;;;;;5117216;27;20040;-86
2024/01/23 06:09:29;;;;;;;28.30;5.35;;;7.30;83.60;;;;;;5120196;27;20039;-85
2024/01/23 06:11:55;;;;;;;29.85;5.43;;;7.30;83.50;;;;;;5125264;27;20084;-87
2024/01/23 06:14:20;;;;;;;28.80;5.20;;;7.30;83.60;;;;;;5118157;27;20039;-86
2024/01/23 06:16:46;;;;;;;26.38;6.47;;;7.30;83.60;;;;;;5122358;27;20039;-86
2024/01/23 06:19:12;;;;;;;33.05;6.00;;;7.20;83.60;;;;;;5124625;27;20507;-86
2024/01/23 06:21:38;;;;;;;27.17;5.30;;;7.20;83.60;;;;;;5129317;27;20031;-86
2024/01/23 06:24:04;;;;;;;26.70;5.07;;;7.60;83.80;;;;;;5115966;27;20483;-86
2024/01/23 06:26:32;;;;;;;29.95;5.80;;;7.30;83.60;;;;;;5125351;27;20577;-86
2024/01/23 06:29:01;;;;;;;24.90;5.47;;;7.30;83.60;;;;;;5135911;27;20069;-86
2024/01/23 06:31:27;;;;;;;27.75;5.60;;;7.20;83.50;;;;;;5125317;27;20122;-86
2024/01/23 06:33:53;;;;;;;26.60;5.70;;;7.30;83.50;;;;;;5122597;27;20039;-86
2024/01/23 06:36:19;;;;;;;26.98;5.55;;;7.30;83.50;;;;;;5113696;27;20543;-86
2024/01/23 06:38:45;;;;;;;24.95;4.47;;;7.20;83.50;;;;;;5113055;28;20197;-87
2024/01/23 06:41:10;;;;;;;24.52;4.78;;;7.20;83.40;;;;;;5119123;27;20039;-85
2024/01/23 06:43:36;;;;;;;33.15;5.15;;;7.20;83.30;;;;;;5123217;27;20035;-85
2024/01/23 06:46:02;;;;;;;25.27;5.45;;;7.20;83.20;;;;;;5107290;28;20401;-86
2024/01/23 06:48:28;;;;;;;27.23;4.95;;;7.20;83.30;;;;;;5122076;28;20035;-85
2024/01/23 06:50:53;;;;;;;32.63;6.65;;;7.10;83.20;;;;;;5116948;28;20039;-85
2024/01/23 06:53:19;;;;;;;28.02;6.38;;;7.10;83.30;;;;;;5106988;28;20042;-85
2024/01/23 06:55:45;;;;;;;20.73;5.10;;;7.10;83.30;;;;;;5120380;27;20037;-86
2024/01/23 06:58:11;;;;;;;24.85;5.05;;;7.10;83.40;;;;;;5119119;28;20114;-85
2024/01/23 07:00:37;;;;;;;27.70;6.18;;;7.10;83.30;;;;;;5123272;28;20055;-85
2024/01/23 07:03:02;;;;;;;24.67;5.07;;;7.00;83.40;;;;;;5102258;28;20080;-85
2024/01/23 07:05:28;;;;;;;25.98;5.80;;;7.00;83.40;;;;;;5123145;28;20084;-84
2024/01/23 07:07:54;;;;;;;30.02;5.38;;;7.00;83.40;;;;;;5120844;28;20585;-86
2024/01/23 07:10:20;;;;;;;23.23;5.05;;;7.80;83.90;;;;;;5120514;27;20047;-85
2024/01/23 07:12:45;;;;;;;23.45;5.15;;;6.90;83.40;;;;;;5120889;27;20032;-85
2024/01/23 07:15:11;;;;;;;31.08;6.68;;;6.90;83.50;;;;;;5120528;28;20041;-86
2024/01/23 07:17:37;;;;;;;28.77;5.28;;;6.90;83.60;;;;;;5113305;28;20031;-86
2024/01/23 07:20:03;;;;;;;25.58;5.72;;;6.90;83.60;;;;;;5121699;28;20401;-86
2024/01/23 07:22:28;;;;;;;28.05;4.95;;;6.80;83.60;;;;;;5103252;28;20496;-85
2024/01/23 07:24:54;;;;;;;19.10;4.50;;;6.80;83.60;;;;;;5120089;28;20065;-86
2024/01/23 07:27:20;;;;;;;23.60;5.80;;;6.80;83.70;;;;;;5120736;28;20035;-86
2024/01/23 07:29:46;;;;;;;23.75;5.60;;;6.80;83.80;;;;;;5120238;28;20050;-86
2024/01/23 07:32:12;;;;;;;26.75;5.50;;;6.80;83.80;;;;;;5118519;28;20035;-85
2024/01/23 07:34:37;;;;;;;28.85;5.65;;;6.70;83.80;;;;;;5120291;27;20489;-85
2024/01/23 07:37:03;;;;;;;28.52;5.32;;;6.70;83.90;;;;;;5102692;27;20139;-85
2024/01/23 07:39:29;;;;;;;29.08;5.93;;;6.70;84.00;;;;;;5124290;27;20035;-85
2024/01/23 07:41:55;;;;;;;23.35;4.88;;;6.70;84.10;;;;;;5124148;27;20040;-85
2024/01/23 07:44:20;;;;;;;23.40;5.05;;;6.70;84.10;;;;;;5126870;27;20035;-85
2024/01/23 07:46:49;;;;;;;27.45;5.82;;;6.70;84.20;;;;;;5110174;27;20473;-85
2024/01/23 07:49:15;;;;;;;21.95;5.25;;;6.60;84.20;;;;;;5126265;27;20490;-86
2024/01/23 07:51:48;;;;;;;28.83;5.85;;;6.60;84.20;;;;;;5123870;27;20037;-85
2024/01/23 07:54:14;;;;;;;26.92;5.03;;;6.60;84.30;;;;;;5123898;27;20553;-85
2024/01/23 07:56:39;;;;;;;24.83;5.50;;;6.60;84.40;;;;;;5099588;27;20066;-85
2024/01/23 07:59:05;;;;;;;21.65;4.15;;;6.60;84.50;;;;;;5127436;27;20042;-84
2024/01/23 08:01:31;;;;;;;25.67;4.65;;;6.60;84.60;;;;;;5115170;27;20063;-85
2024/01/23 08:03:57;;;;;;;26.42;5.18;;;6.50;84.60;;;;;;5131262;27;20046;-85
2024/01/23 08:06:23;;;;;;;23.73;5.40;;;6.50;84.70;;;;;;5148562;27;20031;-85
2024/01/23 08:08:50;;;;;;;30.30;7.38;;;6.50;84.80;;;;;;5124088;27;20508;-86
2024/01/23 08:11:16;;;;;;;23.83;4.70;;;6.50;84.80;;;;;;5119192;27;20031;-85
2024/01/23 08:13:41;;;;;;;26.35;4.93;;;6.50;84.80;;;;;;5123356;27;20038;-85
2024/01/23 08:16:08;;;;;;;28.48;6.88;;;6.50;84.90;;;;;;5123311;27;20035;-85
2024/01/23 08:18:35;;;;;;;28.55;6.18;;;6.50;85.00;;;;;;5123531;27;20036;-85
2024/01/23 08:21:00;;;;;;;22.75;5.55;;;6.50;85.10;;;;;;5123918;27;20114;-85
2024/01/23 08:23:26;;;;;;;27.58;5.18;;;7.30;85.60;;;;;;5122842;27;20127;-86
2024/01/23 08:25:51;;;;;;;22.77;4.72;;;6.50;85.20;;;;;;5123885;27;20043;-85
2024/01/23 08:28:17;;;;;;;25.13;6.18;;;6.50;85.20;;;;;;5123870;27;20515;-86
2024/01/23 08:30:43;;;;;;;25.95;4.18;;;6.50;85.30;;;;;;5124053;27;20035;-86
2024/01/23 08:33:09;;;;;;;20.00;4.50;;;6.50;85.50;;;;;;5124489;27;20049;-86
2024/01/23 08:35:36;;;;;;;26.67;5.20;;;6.50;85.50;;;;;;5124236;27;20073;-86
2024/01/23 08:38:01;;;;;;;29.05;6.60;;;6.50;85.50;;;;;;5129302;27;20038;-85
2024/01/23 08:40:27;;;;;;;29.25;6.57;;;6.50;85.60;;;;;;5118646;27;20069;-86
2024/01/23 08:42:52;;;;;;;32.25;4.97;;;6.50;85.60;;;;;;5127829;27;20246;-86
2024/01/23 08:45:18;;;;;;;22.30;4.78;;;6.50;85.70;;;;;;5115534;27;20038;-85
2024/01/23 08:47:44;;;;;;;27.60;5.45;;;6.60;85.80;;;;;;5130383;27;20042;-86
2024/01/23 08:50:09;;;;;;;29.27;6.05;;;6.60;85.80;;;;;;5124329;27;20096;-85
2024/01/23 08:52:35;;;;;;;25.50;4.88;;;6.60;85.80;;;;;;5123976;27;20507;-85
2024/01/23 08:55:01;;;;;;;26.65;5.65;;;6.60;85.80;;;;;;5111255;27;20401;-86
2024/01/23 08:57:26;;;;;;;24.48;6.68;;;6.60;85.80;;;;;;5122368;27;20039;-85
2024/01/23 08:59:52;;;;;;;32.35;5.82;;;6.60;85.80;;;;;;5122480;27;20031;-86
2024/01/23 09:02:17;;;;;;;29.33;4.85;;;6.70;85.90;;;;;;5121812;27;20216;-86
2024/01/23 09:04:43;;;;;;;28.70;5.65;;;6.70;85.90;;;;;;5122650;27;20050;-86
2024/01/23 09:07:09;;;;;;;27.38;5.97;;;6.70;86.00;;;;;;5123865;27;20039;-86
2024/01/23 09:09:34;;;;;;;22.27;4.47;;;6.80;86.20;;;;;;5120173;27;20046;-86
2024/01/23 09:12:01;;;;;;;26.90;5.57;;;7.30;86.60;;;;;;5122259;27;20406;-86
2024/01/23 09:14:26;;;;;;;28.65;5.20;;;7.30;86.50;;;;;;5122026;27;20043;-85
2024/01/23 09:16:52;;;;;;;28.98;6.22;;;6.90;86.20;;;;;;5117486;27;20045;-85
2024/01/23 09:19:17;;;;;;;29.48;5.60;;;7.00;86.30;;;;;;5124677;27;20589;-86
2024/01/23 09:21:43;;;;;;;26.65;5.85;;;7.10;86.30;;;;;;5105995;27;20035;-86
2024/01/23 09:24:09;;;;;;;24.35;5.68;;;7.10;86.00;;;;;;5122200;27;20035;-86
2024/01/23 09:26:34;;;;;;;24.40;5.53;;;7.20;85.90;;;;;;5106424;27;20042;-86
2024/01/23 09:29:00;;;;;;;27.25;5.45;;;7.30;85.60;;;;;;5127330;27;20040;-85
2024/01/23 09:31:26;;;;;;;25.90;5.65;;;7.40;85.50;;;;;;5118250;27;20031;-85
2024/01/23 09:33:51;;;;;;;23.45;4.85;;;7.40;85.40;;;;;;5116180;27;20118;-86
2024/01/23 09:36:18;;;;;;;23.38;5.20;;;7.50;85.10;;;;;;5122763;27;20053;-86
2024/01/23 09:38:44;;;;;;;21.50;4.97;;;7.90;85.20;;;;;;5121779;27;20506;-86
2024/01/23 09:41:11;;;;;;;21.58;5.28;;;7.60;84.60;;;;;;5121804;27;20522;-85
2024/01/23 09:43:42;;;;;;;26.13;5.43;;;7.60;84.40;;;;;;5116674;27;20041;-85
2024/01/23 09:46:11;;;;;;;30.75;5.07;;;7.70;84.20;;;;;;5114991;27;20042;-85
2024/01/23 09:48:38;;;;;;;21.20;4.47;;;8.20;84.30;;;;;;5124784;27;20043;-85
2024/01/23 09:51:11;;;;;;;26.70;5.85;;;7.70;83.90;;;;;;5100443;28;20482;-85
2024/01/23 09:53:39;;;;;;;23.05;4.57;;;7.80;83.90;;;;;;5114137;27;20509;-85
2024/01/23 09:56:06;;;;;;;25.27;5.93;;;7.80;83.60;;;;;;5125089;27;20035;-85
2024/01/23 09:58:32;;;;;;;26.77;4.97;;;8.10;83.70;;;;;;5111936;27;20051;-85
2024/01/23 10:00:59;;;;;;;26.75;5.82;;;7.90;83.40;;;;;;5120026;27;20050;-85
2024/01/23 10:03:26;;;;;;;26.80;4.93;;;7.90;83.30;;;;;;5122359;27;20039;-85
2024/01/23 10:05:53;;;;;;;27.90;5.93;;;7.90;83.20;;;;;;5104620;27;20042;-85
2024/01/23 10:08:18;;;;;;;25.33;5.55;;;7.90;83.10;;;;;;5121114;27;20091;-85
2024/01/23 10:10:44;;;;;;;22.92;4.78;;;8.00;83.00;;;;;;5116600;27;20044;-85
2024/01/23 10:13:15;;;;;;;26.95;5.28;;;8.00;82.80;;;;;;5124622;27;20053;-85
2024/01/23 10:15:41;;;;;;;30.95;6.55;;;8.00;82.60;;;;;;5100644;28;20035;-85
2024/01/23 10:18:06;;;;;;;21.80;5.55;;;8.00;82.60;;;;;;5125352;27;20043;-85
2024/01/23 10:20:38;;;;;;;26.10;5.82;;;8.10;82.70;;;;;;5121264;27;20042;-84
2024/01/23 10:23:04;;;;;;;23.50;5.80;;;8.10;82.60;;;;;;5121765;27;20553;-85
2024/01/23 10:25:31;;;;;;;25.35;5.20;;;8.10;82.50;;;;;;5104708;27;20064;-84
2024/01/23 10:27:57;;;;;;;24.05;5.03;;;8.10;82.50;;;;;;5121120;27;20043;-85
2024/01/23 10:30:23;;;;;;;29.73;5.70;;;8.10;82.30;;;;;;5120956;27;20497;-85
2024/01/23 10:32:49;;;;;;;29.15;5.88;;;8.10;82.20;;;;;;5121143;27;20042;-85
2024/01/23 10:35:14;;;;;;;22.88;4.90;;;8.10;82.20;;;;;;5120698;27;20035;-85
2024/01/23 10:37:40;;;;;;;30.48;5.93;;;8.10;82.10;;;;;;5138647;27;20058;-84
2024/01/23 10:40:11;;;;;;;22.58;5.07;;;8.20;82.10;;;;;;5109403;27;20032;-85
2024/01/23 10:42:38;;;;;;;26.27;6.05;;;8.20;82.10;;;;;;5123256;27;20118;-84
2024/01/23 10:45:06;;;;;;;26.25;5.95;;;8.20;82.20;;;;;;5098012;27;20035;-84
2024/01/23 10:47:31;;;;;;;25.98;5.97;;;8.20;82.30;;;;;;5124452;27;20122;-84
2024/01/23 10:49:57;;;;;;;29.25;6.22;;;8.20;82.30;;;;;;5120859;28;20059;-84
2024/01/23 10:52:27;;;;;;;20.75;4.85;;;8.20;82.20;;;;;;5129207;28;20412;-85
2024/01/23 10:54:56;;;;;;;28.20;6.20;;;8.20;82.20;;;;;;5115065;28;20407;-85
2024/01/23 10:57:23;;;;;;;32.72;6.97;;;8.20;82.60;;;;;;5114541;28;20040;-85
2024/01/23 10:59:50;;;;;;;25.58;6.38;;;8.30;82.20;;;;;;5128066;27;20031;-85
2024/01/23 11:02:58;;;;;;;31.17;6.05;;;8.30;82.00;;;;;;5131900;28;20055;-85
2024/01/23 11:05:38;;;;;;;25.48;5.45;;;8.30;82.00;;;;;;5097116;28;20138;-86
2024/01/23 11:08:15;;;;;;;31.90;5.80;;;8.30;82.00;;;;;;5127153;28;20039;-86
2024/01/23 11:10:48;;;;;;;21.35;4.60;;;8.30;81.90;;;;;;5123582;27;20420;-85
2024/01/23 11:13:38;;;;;;;25.25;5.45;;;8.40;81.70;;;;;;5124587;27;20066;-85
2024/01/23 11:16:08;;;;;;;23.33;5.07;;;8.40;81.30;;;;;;5124489;27;20050;-86
2024/01/23 11:18:34;;;;;;;24.27;5.45;;;8.40;81.50;;;;;;5119905;27;20073;-86
2024/01/23 11:21:09;;;;;;;28.52;6.00;;;8.40;81.40;;;;;;5142165;27;20459;-86
2024/01/23 11:23:39;;;;;;;24.60;5.90;;;8.40;81.50;;;;;;5119691;27;20516;-86
2024/01/23 11:26:19;;;;;;;25.27;5.28;;;8.40;81.50;;;;;;5111061;27;20050;-85
2024/01/23 11:28:59;;;;;;;26.55;5.97;;;8.40;81.40;;;;;;5107671;27;20039;-85
2024/01/23 11:31:28;;;;;;;24.13;6.20;;;8.50;81.40;;;;;;5126993;27;20486;-85
2024/01/23 11:34:22;;;;;;;21.75;5.18;;;8.50;81.30;;;;;;5123331;27;20040;-85
2024/01/23 11:36:48;;;;;;;29.00;5.85;;;8.50;81.20;;;;;;5111632;27;20063;-85
2024/01/23 11:39:22;;;;;;;19.45;4.60;;;8.50;81.30;;;;;;5123771;27;20031;-86
2024/01/23 11:41:49;;;;;;;27.70;5.78;;;8.50;81.30;;;;;;5121945;27;20036;-85
2024/01/23 11:44:16;;;;;;;22.63;5.32;;;8.50;81.40;;;;;;5133616;27;20160;-85
2024/01/23 11:46:42;;;;;;;23.25;5.38;;;8.50;81.30;;;;;;5113176;28;20036;-85
2024/01/23 11:49:09;;;;;;;27.33;4.68;;;8.50;81.30;;;;;;5121775;27;20031;-85
2024/01/23 11:51:37;;;;;;;21.92;4.85;;;8.50;81.40;;;;;;5127277;27;20071;-85
2024/01/23 11:54:09;;;;;;;21.08;5.80;;;9.20;81.90;;;;;;5124850;27;20054;-85
2024/01/23 11:56:36;;;;;;;25.52;4.75;;;8.50;81.60;;;;;;5123504;27;20447;-86
2024/01/23 11:59:02;;;;;;;25.67;6.43;;;8.50;81.80;;;;;;5124428;27;20046;-81
2024/01/23 12:01:29;;;;;;;24.88;5.35;;;8.50;81.90;;;;;;5134233;27;20099;-81
2024/01/23 12:03:56;;;;;;;22.73;5.00;;;8.50;81.90;;;;;;5131340;27;20036;-81
2024/01/23 12:06:23;;;;;;;22.15;5.55;;;8.50;81.90;;;;;;5132288;27;20032;-81
2024/01/23 12:08:49;;;;;;;22.00;5.15;;;8.50;81.90;;;;;;5109637;28;20067;-82
2024/01/23 12:11:16;;;;;;;27.67;5.53;;;8.50;81.70;;;;;;5114974;28;20050;-86
2024/01/23 12:13:47;;;;;;;23.38;4.88;;;8.50;81.60;;;;;;5128665;27;20040;-82
2024/01/23 12:16:14;;;;;;;26.45;4.93;;;8.50;81.60;;;;;;5130352;27;20043;-82
2024/01/23 12:18:40;;;;;;;17.35;4.18;;;8.50;81.70;;;;;;5129153;27;20100;-82
2024/01/23 12:21:06;;;;;;;25.38;6.35;;;8.50;81.80;;;;;;5118329;27;20090;-81
2024/01/23 12:23:36;;;;;;;22.02;5.15;;;8.70;82.40;;;;;;5128960;27;20035;-81
2024/01/23 12:26:02;;;;;;;20.65;5.35;;;8.60;81.80;;;;;;5124317;27;20031;-81
2024/01/23 12:28:29;;;;;;;21.25;4.38;;;8.50;81.50;;;;;;5113567;27;20033;-81
2024/01/23 12:30:55;;;;;;;28.92;6.70;;;8.60;81.60;;;;;;5121598;27;20051;-80
2024/01/23 12:33:21;;;;;;;23.23;5.53;;;8.60;81.60;;;;;;5132003;27;20036;-81
2024/01/23 12:35:47;;;;;;;26.42;6.03;;;8.60;81.60;;;;;;5124912;27;20123;-81
2024/01/23 12:38:23;;;;;;;34.78;5.72;;;8.60;81.70;;;;;;5112114;27;20062;-81
2024/01/23 12:40:48;;;;;;;20.50;4.97;;;8.60;81.70;;;;;;5115666;27;20031;-82
2024/01/23 12:43:16;;;;;;;30.33;6.20;;;9.30;82.20;;;;;;5124586;27;20036;-81
2024/01/23 12:45:41;;;;;;;25.73;5.63;;;8.60;81.70;;;;;;5106796;28;20077;-82